createdAt,value
2019-03-29T00:01:16.843Z,6.13
2019-03-29T00:03:46.507Z,7.00
2019-03-29T00:06:37.292Z,6.73
2019-03-29T00:09:08.867Z,6.70
2019-03-29T00:11:57.828Z,6.90
2019-03-29T00:14:27.332Z,4.80
2019-03-29T00:16:56.820Z,5.93
2019-03-29T00:19:26.302Z,7.63
2019-03-29T00:21:55.817Z,6.87
2019-03-29T00:24:25.369Z,5.00
2019-03-29T00:26:54.824Z,7.30
2019-03-29T00:29:24.335Z,7.03
2019-03-29T00:31:54.343Z,8.37
2019-03-29T00:34:23.830Z,4.67
2019-03-29T00:36:53.331Z,4.87
2019-03-29T00:39:23.039Z,5.77
2019-03-29T00:41:52.851Z,6.47
2019-03-29T00:44:22.529Z,5.70
2019-03-29T00:46:51.994Z,6.63
2019-03-29T00:49:21.458Z,6.63
2019-03-29T00:51:51.257Z,8.33
2019-03-29T00:54:23.726Z,5.77
2019-03-29T00:56:53.251Z,3.97
2019-03-29T00:59:22.764Z,6.03
2019-03-29T01:01:52.329Z,7.53
2019-03-29T01:04:22.594Z,8.73
2019-03-29T01:06:52.263Z,6.37
2019-03-29T01:09:21.796Z,6.30
2019-03-29T01:11:51.458Z,5.47
2019-03-29T01:14:20.949Z,4.97
2019-03-29T01:16:50.855Z,5.67
2019-03-29T01:19:20.180Z,8.77
2019-03-29T01:21:50.012Z,6.73
2019-03-29T01:24:19.571Z,9.33
2019-03-29T01:26:49.113Z,8.73
2019-03-29T01:29:20.182Z,7.17
2019-03-29T01:31:49.644Z,7.17
2019-03-29T01:34:19.135Z,7.33
2019-03-29T01:36:48.707Z,6.33
2019-03-29T01:39:18.342Z,6.83
2019-03-29T01:41:47.872Z,7.40
2019-03-29T01:44:17.400Z,6.00
2019-03-29T01:47:06.197Z,7.63
2019-03-29T01:49:35.993Z,10.20
2019-03-29T01:52:05.841Z,8.70
2019-03-29T01:54:35.325Z,6.73
2019-03-29T01:57:04.833Z,7.53
2019-03-29T01:59:34.321Z,6.50
2019-03-29T02:02:03.801Z,6.43
2019-03-29T02:04:34.240Z,8.13
2019-03-29T02:07:03.902Z,6.83
2019-03-29T02:09:33.481Z,5.00
2019-03-29T02:12:11.565Z,5.87
2019-03-29T02:14:41.055Z,7.57
2019-03-29T02:17:10.514Z,9.27
2019-03-29T02:19:40.041Z,5.13
2019-03-29T02:22:09.566Z,6.97
2019-03-29T02:24:58.385Z,6.80
2019-03-29T02:27:27.875Z,8.47
2019-03-29T02:29:57.674Z,7.60
2019-03-29T02:32:27.208Z,7.33
2019-03-29T02:34:56.672Z,7.50
2019-03-29T02:37:26.171Z,10.50
2019-03-29T02:39:55.989Z,10.10
2019-03-29T02:42:25.475Z,7.93
2019-03-29T02:44:56.440Z,8.63
2019-03-29T02:47:25.965Z,8.40
2019-03-29T02:49:55.421Z,8.17
2019-03-29T02:52:25.487Z,8.73
2019-03-29T02:54:54.996Z,8.67
2019-03-29T02:57:24.459Z,7.37
2019-03-29T02:59:53.923Z,8.83
2019-03-29T03:02:26.237Z,10.80
2019-03-29T03:05:14.146Z,7.80
2019-03-29T03:07:43.672Z,10.20
2019-03-29T03:10:14.054Z,8.77
2019-03-29T03:12:43.544Z,8.57
2019-03-29T03:15:14.152Z,10.73
2019-03-29T03:18:02.943Z,12.43
2019-03-29T03:20:32.456Z,10.17
2019-03-29T03:23:01.959Z,9.60
2019-03-29T03:25:31.415Z,9.63
2019-03-29T03:28:00.934Z,10.07
2019-03-29T03:30:30.388Z,9.53
2019-03-29T03:33:01.407Z,10.37
2019-03-29T03:35:30.877Z,8.80
2019-03-29T03:38:00.541Z,9.50
2019-03-29T03:40:30.014Z,10.83
2019-03-29T03:42:59.511Z,9.53
2019-03-29T03:45:28.984Z,10.63
2019-03-29T03:47:58.492Z,11.93
2019-03-29T03:50:32.524Z,10.17
2019-03-29T03:53:02.700Z,9.97
2019-03-29T03:55:33.674Z,12.20
2019-03-29T03:58:04.859Z,9.57
2019-03-29T04:00:38.933Z,12.17
2019-03-29T04:03:10.035Z,12.93
2019-03-29T04:05:39.521Z,11.73
2019-03-29T04:08:09.022Z,13.60
2019-03-29T04:10:42.035Z,13.03
2019-03-29T04:13:09.722Z,14.33
2019-03-29T04:15:39.347Z,15.60
2019-03-29T04:18:08.838Z,14.63
2019-03-29T04:20:57.712Z,14.60
2019-03-29T04:23:27.198Z,13.13
2019-03-29T04:25:56.778Z,15.13
2019-03-29T04:28:26.283Z,13.20
2019-03-29T04:30:55.816Z,11.47
2019-03-29T04:33:25.321Z,12.67
2019-03-29T04:35:54.825Z,13.80
2019-03-29T04:38:24.351Z,12.13
2019-03-29T04:40:53.876Z,14.13
2019-03-29T04:43:23.348Z,15.87
2019-03-29T04:46:12.170Z,12.60
2019-03-29T04:48:41.638Z,15.40
2019-03-29T04:51:11.607Z,12.67
2019-03-29T04:53:41.161Z,12.17
2019-03-29T04:56:31.199Z,13.67
2019-03-29T04:59:00.929Z,12.60
2019-03-29T05:01:49.712Z,10.27
2019-03-29T05:04:19.215Z,14.87
2019-03-29T05:06:48.713Z,13.00
2019-03-29T05:09:18.198Z,12.67
2019-03-29T05:11:47.697Z,10.87
2019-03-29T05:14:17.350Z,12.40
2019-03-29T05:16:46.851Z,13.63
2019-03-29T05:19:16.390Z,12.57
2019-03-29T05:21:45.913Z,14.30
2019-03-29T05:24:15.417Z,16.10
2019-03-29T05:26:44.891Z,12.40
2019-03-29T05:29:14.375Z,15.40
2019-03-29T05:31:43.837Z,13.73
2019-03-29T05:34:13.660Z,16.57
2019-03-29T05:36:49.202Z,12.50
2019-03-29T05:39:18.711Z,13.53
2019-03-29T05:41:48.181Z,12.47
2019-03-29T05:44:17.676Z,12.50
2019-03-29T05:46:47.150Z,12.97
2019-03-29T05:49:16.694Z,12.57
2019-03-29T05:51:46.217Z,14.60
2019-03-29T05:54:15.903Z,15.87
2019-03-29T05:56:46.865Z,13.97
2019-03-29T05:59:16.341Z,12.73
2019-03-29T06:01:45.857Z,11.40
2019-03-29T06:04:15.389Z,13.57
2019-03-29T06:06:44.897Z,14.17
2019-03-29T06:09:35.085Z,13.97
2019-03-29T06:12:04.701Z,14.43
2019-03-29T06:14:53.546Z,17.00
2019-03-29T06:17:23.024Z,15.03
2019-03-29T06:19:52.514Z,14.63
2019-03-29T06:22:22.011Z,11.43
2019-03-29T06:24:51.530Z,12.30
2019-03-29T06:27:21.049Z,9.73
2019-03-29T06:29:50.579Z,9.60
2019-03-29T06:32:20.079Z,12.90
2019-03-29T06:34:49.562Z,11.53
2019-03-29T06:37:21.113Z,12.50
2019-03-29T06:39:52.984Z,9.70
2019-03-29T06:42:22.478Z,8.87
2019-03-29T06:44:51.979Z,7.77
2019-03-29T06:47:21.519Z,11.80
2019-03-29T06:49:51.014Z,9.35
2019-03-29T06:52:20.524Z,8.23
2019-03-29T06:54:50.115Z,9.60
2019-03-29T06:57:19.611Z,9.83
2019-03-29T06:59:49.159Z,9.23
2019-03-29T07:02:18.627Z,10.55
2019-03-29T07:04:48.119Z,10.18
2019-03-29T07:07:17.656Z,11.57
2019-03-29T07:09:47.126Z,9.93
2019-03-29T07:12:16.646Z,11.22
2019-03-29T07:14:46.171Z,11.43
2019-03-29T07:17:15.678Z,13.78
2019-03-29T07:19:45.181Z,11.45
2019-03-29T07:22:14.716Z,10.48
2019-03-29T07:24:44.309Z,11.18
2019-03-29T07:27:13.846Z,10.98
2019-03-29T07:29:43.677Z,11.50
2019-03-29T07:32:13.928Z,10.82
2019-03-29T07:34:43.441Z,11.65
2019-03-29T07:37:15.593Z,10.68
2019-03-29T07:39:45.097Z,10.23
2019-03-29T07:42:14.643Z,10.50
2019-03-29T07:44:44.162Z,10.03
2019-03-29T07:47:32.982Z,9.75
2019-03-29T07:50:02.505Z,10.70
2019-03-29T07:52:32.012Z,10.38
2019-03-29T07:55:01.490Z,9.73
2019-03-29T07:57:30.999Z,10.58
2019-03-29T08:00:00.614Z,8.68
2019-03-29T08:02:30.147Z,12.28
2019-03-29T08:04:59.680Z,9.55
2019-03-29T08:07:31.459Z,9.28
2019-03-29T08:10:03.300Z,9.25
2019-03-29T08:12:31.776Z,9.93
2019-03-29T08:15:01.490Z,9.05
2019-03-29T08:17:31.036Z,8.03
2019-03-29T08:20:35.996Z,8.60
2019-03-29T08:22:31.864Z,7.87
2019-03-29T08:25:10.413Z,12.00
2019-03-29T08:27:39.888Z,7.08
2019-03-29T08:30:10.004Z,8.05
2019-03-29T08:32:39.545Z,6.78
2019-03-29T08:35:09.507Z,9.50
2019-03-29T08:37:38.990Z,6.80
2019-03-29T08:40:08.928Z,6.75
2019-03-29T08:42:38.399Z,5.70
2019-03-29T08:45:08.970Z,5.85
2019-03-29T08:47:38.478Z,6.53
2019-03-29T08:50:08.660Z,5.05
2019-03-29T08:52:38.142Z,5.28
2019-03-29T08:55:08.774Z,4.37
2019-03-29T08:57:47.388Z,5.00
2019-03-29T09:00:21.457Z,4.17
2019-03-29T09:02:50.952Z,3.65
2019-03-29T09:05:20.435Z,3.65
2019-03-29T09:07:50.232Z,3.67
2019-03-29T09:10:39.024Z,3.92
2019-03-29T09:13:08.557Z,3.60
2019-03-29T09:15:39.335Z,5.00
2019-03-29T09:18:11.586Z,3.05
2019-03-29T09:20:41.510Z,3.10
2019-03-29T09:23:11.026Z,3.83
2019-03-29T09:25:43.398Z,4.05
2019-03-29T09:28:13.318Z,3.80
2019-03-29T09:31:02.126Z,3.40
2019-03-29T09:33:31.560Z,4.05
2019-03-29T09:36:01.069Z,3.20
2019-03-29T09:38:30.580Z,3.92
2019-03-29T09:41:21.503Z,2.67
2019-03-29T09:43:54.028Z,3.33
2019-03-29T09:46:22.172Z,3.60
2019-03-29T09:48:51.730Z,2.42
2019-03-29T09:51:21.242Z,2.62
2019-03-29T09:54:10.042Z,2.35
2019-03-29T09:56:39.767Z,2.30
2019-03-29T09:59:09.316Z,2.37
2019-03-29T10:01:39.941Z,2.50
2019-03-29T10:04:28.784Z,4.17
2019-03-29T10:07:17.654Z,3.15
2019-03-29T10:09:47.132Z,4.12
2019-03-29T10:12:16.612Z,4.17
2019-03-29T10:14:46.153Z,3.10
2019-03-29T10:17:15.798Z,2.98
2019-03-29T10:19:45.291Z,3.20
2019-03-29T10:22:15.274Z,3.50
2019-03-29T10:24:44.759Z,3.08
2019-03-29T10:27:33.584Z,3.35
2019-03-29T10:30:25.437Z,3.83
2019-03-29T10:32:55.512Z,4.10
2019-03-29T10:35:25.114Z,3.67
2019-03-29T10:37:54.629Z,3.80
2019-03-29T10:40:24.153Z,4.87
2019-03-29T10:42:58.114Z,5.20
2019-03-29T10:45:24.913Z,4.10
2019-03-29T10:47:54.489Z,4.28
2019-03-29T10:50:24.264Z,3.33
2019-03-29T10:53:13.117Z,3.95
2019-03-29T10:55:42.539Z,3.72
2019-03-29T10:58:12.283Z,4.05
2019-03-29T11:00:42.285Z,4.42
2019-03-29T11:03:13.551Z,4.25
2019-03-29T11:05:43.223Z,5.00
2019-03-29T11:08:13.049Z,4.00
2019-03-29T11:10:43.684Z,3.95
2019-03-29T11:13:14.321Z,4.87
2019-03-29T11:15:44.431Z,5.00
2019-03-29T11:18:33.222Z,4.67
2019-03-29T11:21:02.765Z,5.70
2019-03-29T11:23:32.266Z,4.58
2019-03-29T11:26:01.757Z,7.75
2019-03-29T11:28:32.953Z,5.17
2019-03-29T11:31:24.002Z,5.85
2019-03-29T11:33:52.951Z,5.45
2019-03-29T11:36:22.441Z,5.00
2019-03-29T11:38:52.691Z,6.05
2019-03-29T11:41:28.253Z,4.67
2019-03-29T11:43:57.817Z,4.10
2019-03-29T11:46:27.421Z,4.22
2019-03-29T11:48:57.031Z,4.60
2019-03-29T11:51:45.879Z,3.87
2019-03-29T11:54:15.386Z,4.30
2019-03-29T11:56:47.460Z,5.92
2019-03-29T11:59:16.858Z,6.08
2019-03-29T12:01:59.128Z,4.55
2019-03-29T12:04:28.647Z,4.05
2019-03-29T12:06:58.112Z,5.83
2019-03-29T12:09:27.821Z,4.83
2019-03-29T12:11:57.306Z,4.20
2019-03-29T12:14:26.784Z,4.60
2019-03-29T12:16:56.341Z,4.08
2019-03-29T12:19:25.903Z,3.47
2019-03-29T12:21:55.393Z,4.60
2019-03-29T12:24:24.945Z,4.20
2019-03-29T12:26:55.114Z,3.55
2019-03-29T12:29:24.715Z,3.30
2019-03-29T12:32:13.583Z,4.53
2019-03-29T12:34:43.087Z,3.60
2019-03-29T12:37:12.595Z,3.83
2019-03-29T12:39:42.250Z,5.00
2019-03-29T12:42:11.743Z,3.55
2019-03-29T12:44:41.203Z,4.53
2019-03-29T12:47:10.697Z,3.35
2019-03-29T12:49:40.188Z,3.77
2019-03-29T12:52:09.696Z,3.05
2019-03-29T12:54:39.208Z,2.95
2019-03-29T12:57:10.229Z,2.72
2019-03-29T12:59:39.962Z,4.67
2019-03-29T13:02:10.299Z,2.98
2019-03-29T13:04:39.780Z,3.75
2019-03-29T13:07:09.253Z,3.20
2019-03-29T13:09:39.918Z,2.58
2019-03-29T13:12:09.712Z,2.80
2019-03-29T13:14:39.171Z,4.58
2019-03-29T13:17:08.935Z,3.85
2019-03-29T13:19:38.626Z,3.00
2019-03-29T13:22:08.888Z,3.92
2019-03-29T13:24:58.144Z,3.33
2019-03-29T13:27:27.628Z,3.60
2019-03-29T13:29:57.091Z,3.70
2019-03-29T13:32:26.653Z,3.25
2019-03-29T13:34:56.153Z,3.27
2019-03-29T13:37:25.663Z,3.42
2019-03-29T13:39:55.167Z,3.70
2019-03-29T13:42:24.681Z,3.62
2019-03-29T13:44:54.133Z,3.40
2019-03-29T13:47:23.657Z,3.47
2019-03-29T13:49:53.132Z,3.40
2019-03-29T13:52:22.602Z,3.20
2019-03-29T13:54:52.152Z,4.37
2019-03-29T13:57:21.642Z,3.83
2019-03-29T13:59:51.404Z,4.78
2019-03-29T14:02:21.149Z,4.80
2019-03-29T14:04:50.618Z,3.90
2019-03-29T14:07:20.127Z,5.28
2019-03-29T14:09:49.647Z,3.87
2019-03-29T14:12:39.581Z,4.47
2019-03-29T14:15:12.993Z,3.60
2019-03-29T14:18:01.827Z,3.33
2019-03-29T14:20:33.831Z,3.22
2019-03-29T14:23:04.921Z,3.75
2019-03-29T14:25:34.672Z,3.42
2019-03-29T14:28:07.171Z,3.37
2019-03-29T14:30:36.687Z,4.30
2019-03-29T14:33:25.462Z,4.83
2019-03-29T14:35:55.952Z,3.50
2019-03-29T14:38:25.446Z,4.67
2019-03-29T14:40:55.497Z,4.12
2019-03-29T14:43:24.981Z,5.20
2019-03-29T14:45:54.490Z,5.00
2019-03-29T14:48:24.058Z,3.83
2019-03-29T14:50:53.561Z,3.00
2019-03-29T14:53:24.563Z,3.40
2019-03-29T14:55:54.187Z,3.85
2019-03-29T14:58:23.645Z,4.35
2019-03-29T15:00:53.358Z,4.20
2019-03-29T15:03:22.869Z,4.15
2019-03-29T15:06:01.597Z,4.37
2019-03-29T15:08:29.785Z,3.55
2019-03-29T15:10:59.247Z,4.60
2019-03-29T15:13:28.708Z,5.17
2019-03-29T15:15:58.199Z,5.22
2019-03-29T15:18:29.216Z,4.08
2019-03-29T15:21:04.402Z,4.15
2019-03-29T15:23:33.957Z,4.92
2019-03-29T15:26:03.732Z,4.78
2019-03-29T15:28:33.275Z,5.65
2019-03-29T15:31:02.755Z,4.60
2019-03-29T15:33:32.218Z,5.87
2019-03-29T15:36:01.720Z,4.90
2019-03-29T15:38:31.184Z,4.78
2019-03-29T15:41:00.690Z,5.20
2019-03-29T15:43:36.137Z,4.92
2019-03-29T15:46:05.664Z,5.30
2019-03-29T15:48:35.162Z,5.05
2019-03-29T15:51:24.021Z,5.00
2019-03-29T15:53:53.505Z,6.55
2019-03-29T15:56:24.548Z,7.55
2019-03-29T15:58:55.690Z,5.00
2019-03-29T16:01:25.534Z,6.15
2019-03-29T16:03:55.028Z,5.47
2019-03-29T16:06:24.559Z,4.12
2019-03-29T16:08:54.019Z,5.08
2019-03-29T16:11:23.525Z,5.50
2019-03-29T16:13:53.040Z,6.60
2019-03-29T16:16:22.526Z,4.47
2019-03-29T16:18:52.033Z,5.83
2019-03-29T16:21:21.547Z,5.78
2019-03-29T16:23:51.062Z,5.05
2019-03-29T16:26:20.551Z,5.78
2019-03-29T16:28:50.080Z,5.15
2019-03-29T16:31:19.538Z,4.58
2019-03-29T16:33:49.050Z,4.78
2019-03-29T16:36:18.568Z,6.62
2019-03-29T16:39:08.306Z,4.55
2019-03-29T16:41:38.470Z,4.47
2019-03-29T16:44:08.030Z,4.97
2019-03-29T16:46:37.529Z,5.28
2019-03-29T16:49:07.047Z,4.30
2019-03-29T16:51:36.708Z,5.10
2019-03-29T16:54:06.245Z,7.42
2019-03-29T16:56:35.863Z,4.62
2019-03-29T16:59:05.723Z,5.15
2019-03-29T17:01:35.283Z,5.17
2019-03-29T17:04:05.444Z,5.30
2019-03-29T17:06:35.097Z,3.47
2019-03-29T17:09:06.994Z,3.75
2019-03-29T17:11:36.722Z,4.17
2019-03-29T17:14:06.624Z,3.70
2019-03-29T17:16:41.883Z,4.90
2019-03-29T17:19:11.386Z,3.72
2019-03-29T17:21:40.891Z,4.22
2019-03-29T17:24:10.394Z,3.40
2019-03-29T17:26:39.860Z,4.12
2019-03-29T17:29:09.367Z,4.25
2019-03-29T17:31:38.894Z,3.02
2019-03-29T17:34:11.156Z,2.55
2019-03-29T17:36:43.502Z,2.47
2019-03-29T17:39:13.233Z,2.30
2019-03-29T17:41:42.788Z,2.90
2019-03-29T17:44:12.274Z,2.20
2019-03-29T17:46:41.783Z,2.20
2019-03-29T17:49:11.258Z,4.30
2019-03-29T17:51:40.774Z,2.60
2019-03-29T17:54:10.256Z,1.82
2019-03-29T17:56:39.749Z,2.33
2019-03-29T17:59:09.272Z,2.00
2019-03-29T18:01:39.833Z,2.17
2019-03-29T18:04:09.318Z,2.52
2019-03-29T18:06:58.323Z,2.15
2019-03-29T18:09:47.138Z,1.95
2019-03-29T18:12:16.641Z,2.65
2019-03-29T18:14:46.232Z,3.17
2019-03-29T18:17:15.737Z,2.45
2019-03-29T18:19:45.364Z,4.35
2019-03-29T18:22:14.843Z,2.35
2019-03-29T18:24:44.456Z,2.98
2019-03-29T18:27:14.139Z,2.52
2019-03-29T18:29:43.615Z,2.05
2019-03-29T18:32:13.744Z,2.12
2019-03-29T18:34:43.300Z,3.90
2019-03-29T18:37:14.505Z,4.50
2019-03-29T18:39:45.477Z,3.05
2019-03-29T18:42:14.977Z,2.37
2019-03-29T18:44:44.451Z,3.20
2019-03-29T18:47:13.939Z,2.70
2019-03-29T18:49:43.495Z,2.83
2019-03-29T18:52:13.150Z,2.47
2019-03-29T18:54:44.171Z,2.30
2019-03-29T18:57:13.662Z,2.08
2019-03-29T18:59:43.147Z,2.42
2019-03-29T19:02:13.194Z,3.30
2019-03-29T19:04:42.771Z,2.33
2019-03-29T19:07:12.279Z,2.30
2019-03-29T19:09:41.784Z,3.77
2019-03-29T19:12:11.284Z,2.40
2019-03-29T19:14:41.794Z,2.80
2019-03-29T19:17:11.477Z,2.95
2019-03-29T19:19:40.988Z,2.40
2019-03-29T19:22:10.456Z,3.03
2019-03-29T19:24:39.938Z,2.20
2019-03-29T19:27:09.440Z,2.50
2019-03-29T19:29:38.948Z,3.93
2019-03-29T19:32:08.581Z,2.03
2019-03-29T19:34:38.109Z,3.40
2019-03-29T19:37:07.575Z,4.50
2019-03-29T19:39:37.113Z,2.83
2019-03-29T19:42:07.131Z,2.60
2019-03-29T19:44:36.632Z,3.00
2019-03-29T19:47:13.482Z,3.30
2019-03-29T19:49:37.400Z,3.00
2019-03-29T19:52:07.057Z,2.60
2019-03-29T19:54:36.541Z,2.47
2019-03-29T19:57:08.949Z,3.37
2019-03-29T19:59:38.511Z,2.40
2019-03-29T20:02:07.972Z,2.60
2019-03-29T20:04:45.269Z,3.30
2019-03-29T20:07:20.315Z,2.50
2019-03-29T20:09:52.481Z,4.73
2019-03-29T20:12:24.973Z,2.67
2019-03-29T20:14:54.747Z,2.60
2019-03-29T20:17:27.688Z,4.67
2019-03-29T20:19:55.589Z,3.93
2019-03-29T20:22:25.047Z,3.83
2019-03-29T20:24:54.565Z,3.67
2019-03-29T20:27:24.047Z,4.93
2019-03-29T20:29:53.534Z,2.87
2019-03-29T20:32:23.008Z,3.23
2019-03-29T20:34:52.500Z,3.03
2019-03-29T20:37:22.003Z,3.97
2019-03-29T20:39:51.480Z,3.40
2019-03-29T20:42:20.960Z,4.00
2019-03-29T20:44:50.719Z,2.80
2019-03-29T20:47:20.683Z,3.17
2019-03-29T20:49:50.152Z,2.80
2019-03-29T20:52:19.700Z,3.07
2019-03-29T20:54:49.163Z,4.87
2019-03-29T20:57:18.713Z,5.40
2019-03-29T20:59:48.172Z,3.30
2019-03-29T21:02:17.687Z,3.17
2019-03-29T21:04:47.775Z,3.90
2019-03-29T21:07:17.753Z,3.67
2019-03-29T21:09:47.349Z,4.10
2019-03-29T21:12:16.811Z,5.93
2019-03-29T21:14:46.307Z,3.17
2019-03-29T21:17:15.947Z,4.30
2019-03-29T21:19:45.414Z,4.17
2019-03-29T21:22:15.263Z,3.60
2019-03-29T21:24:44.759Z,4.30
2019-03-29T21:27:14.240Z,6.90
2019-03-29T21:29:43.714Z,3.50
2019-03-29T21:32:13.217Z,3.30
2019-03-29T21:34:42.713Z,5.10
2019-03-29T21:37:17.845Z,3.30
2019-03-29T21:39:47.339Z,6.07
2019-03-29T21:42:19.591Z,5.30
2019-03-29T21:44:49.134Z,7.97
2019-03-29T21:47:24.235Z,4.13
2019-03-29T21:49:57.526Z,5.60
2019-03-29T21:52:26.992Z,5.70
2019-03-29T21:54:56.445Z,4.80
2019-03-29T21:57:25.973Z,5.53
2019-03-29T21:59:55.447Z,4.53
2019-03-29T22:02:24.981Z,5.63
2019-03-29T22:04:54.560Z,3.70
2019-03-29T22:07:24.028Z,5.07
2019-03-29T22:09:53.506Z,4.10
2019-03-29T22:12:23.008Z,4.00
2019-03-29T22:14:52.489Z,6.90
2019-03-29T22:17:22.212Z,5.97
2019-03-29T22:19:51.733Z,4.27
2019-03-29T22:22:21.199Z,5.17
2019-03-29T22:24:50.688Z,4.10
2019-03-29T22:27:20.239Z,5.47
2019-03-29T22:29:49.722Z,3.60
2019-03-29T22:32:21.895Z,3.87
2019-03-29T22:34:51.475Z,5.10
2019-03-29T22:37:23.572Z,5.20
2019-03-29T22:39:53.040Z,4.93
2019-03-29T22:42:22.798Z,4.03
2019-03-29T22:44:52.254Z,4.47
2019-03-29T22:47:21.710Z,5.47
2019-03-29T22:49:51.375Z,4.50
2019-03-29T22:52:20.877Z,4.60
2019-03-29T22:54:50.323Z,4.37
2019-03-29T22:57:20.209Z,6.33
2019-03-29T22:59:49.701Z,6.10
2019-03-29T23:02:19.507Z,5.90
2019-03-29T23:04:51.781Z,4.97
2019-03-29T23:07:22.984Z,4.90
2019-03-29T23:09:58.472Z,5.57
2019-03-29T23:12:27.923Z,6.63
2019-03-29T23:15:03.369Z,4.40
2019-03-29T23:17:37.084Z,4.77
2019-03-29T23:20:07.026Z,6.87
2019-03-29T23:22:36.514Z,4.77
2019-03-29T23:25:06.979Z,5.90
2019-03-29T23:27:36.829Z,4.80
2019-03-29T23:30:08.111Z,5.03
2019-03-29T23:32:42.214Z,4.73
2019-03-29T23:35:11.996Z,5.97
2019-03-29T23:37:41.550Z,4.50
2019-03-29T23:40:12.369Z,7.37
2019-03-29T23:42:44.778Z,4.53
2019-03-29T23:45:14.668Z,5.10
2019-03-29T23:47:44.304Z,4.97
2019-03-29T23:50:16.559Z,4.70
2019-03-29T23:52:48.942Z,5.47
2019-03-29T23:55:18.424Z,4.73
2019-03-29T23:57:47.901Z,5.63
